Nearby METAR Reports

KBIS - Bismarck, North Dakota, USA
Distance from station: S 10mi, 15km
Updated: Thu, 25-Jul-2024 3:52am CDT
Clear
Clear
 Wind from SSE
Wind: SSE 9 mph, 15 km/h, Gust: 21 mph, 33 km/h
Temperature: 73°F, 23°C
Dew Point: 70°F, 21°C
Humidity: 89%
Barometer: 30.01 inHg, 1016.3 hPa
Clouds: Clear
Visibility: 8 miles, 13 km
2024/07/25 08:52 KBIS 250852Z AUTO 16008G18KT 8SM CLR 23/21 A3001 RMK AO2 SLP151 T02280206 56008 $
KDIK - Dickinson, North Dakota, USA
Distance from station: W 95mi, 154km
Updated: Thu, 25-Jul-2024 3:56am CDT
Clear
Clear
 Wind from S
Wind: S 9 mph, 15 km/h
Temperature: 72°F, 22°C
Dew Point: 61°F, 16°C
Humidity: 69%
Barometer: 29.98 inHg, 1015.2 hPa
Clouds: Clear
Visibility: 8 miles, 13 km
2024/07/25 08:56 KDIK 250856Z AUTO 19008KT 8SM CLR 22/16 A2998 RMK AO2 SLP125 T02220161 56005
 
KGFK - Grand Forks, North Dakota, USA
Distance from station: NNW 76mi, 123km
Updated: Thu, 25-Jul-2024 3:53am CDT
Clear
Clear
 Wind from SSE
Wind: SSE 12 mph, 19 km/h
Temperature: 66°F, 19°C
Dew Point: 61°F, 16°C
Humidity: 83%
Barometer: 30.10 inHg, 1019.3 hPa
Clouds: Clear
Visibility: 10 miles, 16 km
2024/07/25 08:53 KGFK 250853Z AUTO 16010KT 10SM CLR 19/16 A3010 RMK AO2 SLP190 T01940156 57002
KXWA - Williston, North Dakota, USA
Distance from station: NNW 2mi, 2km
Updated: Thu, 25-Jul-2024 3:51am CDT
Clear
Clear
 Wind from SSE
Wind: SSE 8 mph, 13 km/h
Temperature: 73°F, 23°C
Dew Point: 54°F, 12°C
Humidity: 50%
Barometer: 29.93 inHg, 1013.5 hPa
Clouds: Clear
Visibility: 10 miles, 16 km
2024/07/25 08:51 KXWA 250851Z AUTO 16007KT 10SM CLR 23/12 A2993 RMK AO2 SLP115 T02280117 58002
 
KFAR - Fargo, North Dakota, USA
Distance from station: NNW 4mi, 7km
Updated: Thu, 25-Jul-2024 3:53am CDT
Clear
Clear
 Wind from SSE
Wind: SSE 13 mph, 20 km/h
Temperature: 68°F, 20°C
Dew Point: 63°F, 17°C
Humidity: 83%
Barometer: 30.13 inHg, 1020.3 hPa
Clouds: Clear
Visibility: 10 miles, 16 km
2024/07/25 08:53 KFAR 250853Z 16011KT 10SM CLR 20/17 A3013 RMK AO2 SLP200 T02000167 58000
KMOT - Minot, North Dakota, USA
Distance from station: E 109mi, 175km
Updated: Thu, 25-Jul-2024 3:54am CDT
Clear
Clear
 Wind from SSE
Wind: SSE 9 mph, 15 km/h
Temperature: 73°F, 23°C
Dew Point: 68°F, 20°C
Humidity: 83%
Barometer: 29.94 inHg, 1013.9 hPa
Clouds: Clear
Visibility: 8 miles, 13 km
2024/07/25 08:54 KMOT 250854Z AUTO 16008KT 8SM CLR 23/20 A2994 RMK AO2 SLP125 T02330200 58007